createdAt,value
2022-09-12T00:04:01.021Z,12.6
2022-09-12T00:06:00.921Z,12.5
2022-09-12T00:08:00.944Z,12.6
2022-09-12T00:09:00.937Z,12.4
2022-09-12T00:10:01.005Z,12.5
2022-09-12T00:15:00.966Z,12.7
2022-09-12T00:16:00.980Z,12.6
2022-09-12T00:19:00.934Z,12.4
2022-09-12T00:21:00.970Z,12.5
2022-09-12T00:22:01.135Z,12.4
2022-09-12T00:25:00.962Z,12.2
2022-09-12T00:26:01.005Z,12.3
2022-09-12T00:30:00.958Z,12.1
2022-09-12T00:31:00.915Z,12.2
2022-09-12T00:32:00.960Z,12.1
2022-09-12T00:34:01.002Z,12
2022-09-12T00:37:00.912Z,11.9
2022-09-12T00:39:00.912Z,12
2022-09-12T00:40:00.956Z,11.8
2022-09-12T00:41:00.938Z,11.9
2022-09-12T00:43:00.914Z,11.7
2022-09-12T00:44:00.923Z,11.8
2022-09-12T00:45:00.967Z,11.9
2022-09-12T00:46:00.997Z,11.7
2022-09-12T00:48:00.905Z,11.7
2022-09-12T00:50:00.916Z,11.6
2022-09-12T00:51:00.982Z,11.5
2022-09-12T00:53:01.043Z,11.7
2022-09-12T00:55:00.899Z,11.5
2022-09-12T01:00:00.966Z,11.4
2022-09-12T01:01:01.109Z,11.3
2022-09-12T01:08:01.022Z,11.1
2022-09-12T01:09:01.147Z,11.3
2022-09-12T01:12:00.940Z,11.3
2022-09-12T01:16:00.935Z,11.3
2022-09-12T01:18:00.913Z,11.1
2022-09-12T01:19:00.962Z,11
2022-09-12T01:20:00.940Z,11.1
2022-09-12T01:21:00.971Z,11
2022-09-12T01:23:00.944Z,10.9
2022-09-12T01:27:00.940Z,10.9
2022-09-12T01:31:00.956Z,10.9
2022-09-12T01:33:00.974Z,10.8
2022-09-12T01:34:00.937Z,11
2022-09-12T01:36:00.941Z,11
2022-09-12T01:39:00.926Z,10.9
2022-09-12T01:40:00.937Z,11
2022-09-12T01:41:00.932Z,10.9
2022-09-12T01:42:00.926Z,11
2022-09-12T01:43:00.969Z,10.9
2022-09-12T01:45:00.919Z,10.8
2022-09-12T01:46:00.970Z,10.9
2022-09-12T01:49:00.916Z,11
2022-09-12T01:50:00.925Z,10.8
2022-09-12T01:51:01.037Z,10.9
2022-09-12T01:52:00.977Z,10.8
2022-09-12T01:56:00.939Z,10.9
2022-09-12T01:58:00.904Z,10.8
2022-09-12T02:01:00.951Z,10.9
2022-09-12T02:02:00.960Z,10.7
2022-09-12T02:04:00.916Z,10.7
2022-09-12T02:07:00.984Z,10.8
2022-09-12T02:09:00.913Z,10.8
2022-09-12T02:10:00.924Z,10.7
2022-09-12T02:13:00.978Z,10.8
2022-09-12T02:15:00.923Z,10.7
2022-09-12T02:18:00.998Z,10.8
2022-09-12T02:22:00.907Z,10.8
2022-09-12T02:23:01.080Z,10.6
2022-09-12T02:26:00.943Z,10.8
2022-09-12T02:29:00.979Z,10.7
2022-09-12T02:30:00.967Z,10.6
2022-09-12T02:31:01.043Z,10.8
2022-09-12T02:33:00.956Z,10.7
2022-09-12T02:36:00.908Z,10.8
2022-09-12T02:37:00.891Z,10.7
2022-09-12T02:38:00.965Z,10.8
2022-09-12T02:41:01.013Z,10.6
2022-09-12T02:43:00.986Z,10.8
2022-09-12T02:45:00.946Z,10.7
2022-09-12T02:49:00.925Z,10.6
2022-09-12T02:51:00.893Z,10.5
2022-09-12T02:52:00.895Z,10.6
2022-09-12T02:53:00.943Z,10.7
2022-09-12T02:57:01.058Z,10.5
2022-09-12T02:59:00.982Z,10.6
2022-09-12T03:02:01.006Z,10.7
2022-09-12T03:04:01.004Z,10.5
2022-09-12T03:06:00.950Z,10.7
2022-09-12T03:08:00.933Z,10.5
2022-09-12T03:09:00.964Z,10.6
2022-09-12T03:10:01.044Z,10.7
2022-09-12T03:12:00.955Z,10.8
2022-09-12T03:14:00.960Z,10.9
2022-09-12T03:15:00.943Z,10.8
2022-09-12T03:17:00.985Z,10.8
2022-09-12T03:20:00.944Z,11
2022-09-12T03:23:00.922Z,11.1
2022-09-12T03:24:00.955Z,11.2
2022-09-12T03:26:00.978Z,11.1
2022-09-12T03:27:00.955Z,11.2
2022-09-12T03:29:00.953Z,11.2
2022-09-12T03:30:01.118Z,11.3
2022-09-12T03:38:00.917Z,11.4
2022-09-12T03:41:00.979Z,11.3
2022-09-12T03:43:00.965Z,11.4
2022-09-12T03:44:00.942Z,11.3
2022-09-12T03:45:00.909Z,11.4
2022-09-12T03:50:00.979Z,11.5
2022-09-12T03:51:00.956Z,11.4
2022-09-12T03:52:00.948Z,11.5
2022-09-12T03:54:01.111Z,11.6
2022-09-12T03:55:01.104Z,11.4
2022-09-12T03:56:01.012Z,11.5
2022-09-12T03:57:00.929Z,11.4
2022-09-12T03:58:01.007Z,11.5
2022-09-12T03:59:00.947Z,11.6
2022-09-12T04:00:00.949Z,11.5
2022-09-12T04:03:01.028Z,11.5
2022-09-12T04:05:01.101Z,11.4
2022-09-12T04:07:00.986Z,11.5
2022-09-12T04:09:00.932Z,11.5
2022-09-12T04:20:00.901Z,11.4
2022-09-12T04:21:00.909Z,11.5
2022-09-12T04:22:00.921Z,11.4
2022-09-12T04:27:03.761Z,11.3
2022-09-12T04:30:01.015Z,11.4
2022-09-12T04:34:00.932Z,11.4
2022-09-12T04:35:00.953Z,11.2
2022-09-12T04:38:00.913Z,11.2
2022-09-12T04:40:00.953Z,11.3
2022-09-12T04:42:00.912Z,11.2
2022-09-12T04:43:00.941Z,11.3
2022-09-12T04:45:00.937Z,11.2
2022-09-12T04:47:00.910Z,11.3
2022-09-12T04:48:01.057Z,11.2
2022-09-12T04:50:01.000Z,11.4
2022-09-12T04:51:01.103Z,11.3
2022-09-12T04:53:00.952Z,11.4
2022-09-12T04:54:00.941Z,11.3
2022-09-12T04:56:00.931Z,11.4
2022-09-12T04:57:00.900Z,11.3
2022-09-12T04:58:00.907Z,11.4
2022-09-12T04:59:00.899Z,11.5
2022-09-12T05:00:03.962Z,11.4
2022-09-12T05:01:01.029Z,11.5
2022-09-12T05:03:01.023Z,11.4
2022-09-12T05:05:01.300Z,11.5
2022-09-12T05:09:01.039Z,11.3
2022-09-12T05:10:01.277Z,11.4
2022-09-12T05:14:01.022Z,11.5
2022-09-12T05:15:01.021Z,11.3
2022-09-12T05:16:01.004Z,11.4
2022-09-12T05:18:01.532Z,11.5
2022-09-12T05:23:01.166Z,11.6
2022-09-12T05:25:01.075Z,11.7
2022-09-12T05:26:01.029Z,11.6
2022-09-12T05:28:01.391Z,11.7
2022-09-12T05:31:01.086Z,11.8
2022-09-12T05:32:01.208Z,11.7
2022-09-12T05:34:01.085Z,11.9
2022-09-12T05:35:02.140Z,11.8
2022-09-12T05:37:01.279Z,12
2022-09-12T05:39:01.230Z,12
2022-09-12T05:42:00.961Z,12.2
2022-09-12T05:44:01.009Z,12.1
2022-09-12T05:46:01.035Z,12.4
2022-09-12T05:48:00.974Z,12.3
2022-09-12T05:49:01.145Z,12.4
2022-09-12T05:51:01.038Z,12.6
2022-09-12T05:52:01.104Z,12.7
2022-09-12T05:54:00.960Z,12.9
2022-09-12T05:55:00.936Z,13
2022-09-12T05:56:00.985Z,13.1
2022-09-12T05:58:01.043Z,13.4
2022-09-12T06:00:00.957Z,14
2022-09-12T06:01:01.001Z,14.3
2022-09-12T06:02:01.203Z,14.6
2022-09-12T06:04:01.033Z,14.8
2022-09-12T06:06:00.959Z,15
2022-09-12T06:07:00.964Z,15.2
2022-09-12T06:08:01.036Z,15.3
2022-09-12T06:09:01.112Z,15.4
2022-09-12T06:11:02.324Z,15.9
2022-09-12T06:13:00.954Z,15.9
2022-09-12T06:15:00.979Z,16
2022-09-12T06:17:01.014Z,16.3
2022-09-12T06:19:00.946Z,16.6
2022-09-12T06:20:00.931Z,16.9
2022-09-12T06:21:00.984Z,17
2022-09-12T06:22:00.978Z,17.2
2022-09-12T06:24:00.946Z,17.3
2022-09-12T06:25:01.112Z,17.5
2022-09-12T06:27:01.016Z,17.6
2022-09-12T06:28:00.986Z,17.5
2022-09-12T06:31:00.970Z,17.7
2022-09-12T06:33:01.061Z,17.7
2022-09-12T06:35:00.931Z,17.5
2022-09-12T06:37:00.902Z,17.4
2022-09-12T06:38:00.937Z,17.3
2022-09-12T06:41:00.908Z,16.9
2022-09-12T06:43:00.958Z,16.8
2022-09-12T06:44:00.908Z,16.7
2022-09-12T06:47:00.953Z,16.3
2022-09-12T06:51:00.927Z,16.1
2022-09-12T06:52:00.915Z,16
2022-09-12T06:53:00.919Z,16.2
2022-09-12T06:54:00.973Z,16
2022-09-12T06:56:00.960Z,16.2
2022-09-12T06:58:00.898Z,16.3
2022-09-12T06:59:00.906Z,16.2
2022-09-12T07:00:00.925Z,16.4
2022-09-12T07:02:00.906Z,16.5
2022-09-12T07:04:00.925Z,16.6
2022-09-12T07:06:00.905Z,16.5
2022-09-12T07:11:00.932Z,16.4
2022-09-12T07:14:00.920Z,16.5
2022-09-12T07:15:00.913Z,16.6
2022-09-12T07:16:00.951Z,16.7
2022-09-12T07:18:00.957Z,16.8
2022-09-12T07:21:00.939Z,17
2022-09-12T07:23:00.955Z,16.9
2022-09-12T07:25:00.986Z,16.9
2022-09-12T07:26:00.945Z,17
2022-09-12T07:31:00.965Z,16.7
2022-09-12T07:34:00.907Z,16.6
2022-09-12T07:37:00.933Z,16.7
2022-09-12T07:39:00.950Z,16.6
2022-09-12T07:40:00.974Z,16.7
2022-09-12T07:41:00.943Z,16.8
2022-09-12T07:42:00.978Z,16.7
2022-09-12T07:48:00.945Z,16.8
2022-09-12T07:50:00.909Z,16.9
2022-09-12T07:52:00.934Z,17
2022-09-12T07:54:00.908Z,17.1
2022-09-12T07:58:00.922Z,17.2
2022-09-12T08:00:00.915Z,17.3
2022-09-12T08:03:00.931Z,17.5
2022-09-12T08:07:00.961Z,17.4
2022-09-12T08:10:00.905Z,17.7
2022-09-12T08:12:00.900Z,17.5
2022-09-12T08:13:00.926Z,17.6
2022-09-12T08:15:00.975Z,17.3
2022-09-12T08:16:00.959Z,17.4
2022-09-12T08:17:01.110Z,17.3
2022-09-12T08:19:00.919Z,17.4
2022-09-12T08:21:00.978Z,17.5
2022-09-12T08:22:01.047Z,17.3
2022-09-12T08:23:00.948Z,17.5
2022-09-12T08:26:04.190Z,17.2
2022-09-12T08:28:00.947Z,17.3
2022-09-12T08:29:00.998Z,17.4
2022-09-12T08:30:00.986Z,17.5
2022-09-12T08:32:00.981Z,17.7
2022-09-12T08:34:00.929Z,18
2022-09-12T08:37:01.013Z,18.2
2022-09-12T08:40:00.975Z,18.3
2022-09-12T08:41:00.909Z,18.6
2022-09-12T08:42:00.982Z,18.5
2022-09-12T08:44:00.917Z,18.7
2022-09-12T08:46:00.944Z,18.6
2022-09-12T08:47:00.955Z,18.8
2022-09-12T08:48:00.906Z,18.6
2022-09-12T08:49:00.896Z,18.5
2022-09-12T08:50:00.899Z,18.7
2022-09-12T08:51:00.989Z,18.6
2022-09-12T08:52:01.156Z,18.8
2022-09-12T08:56:00.895Z,19.1
2022-09-12T08:59:00.981Z,19
2022-09-12T09:02:00.987Z,18.9
2022-09-12T09:03:00.925Z,19
2022-09-12T09:05:00.921Z,18.7
2022-09-12T09:08:00.991Z,18.6
2022-09-12T09:11:00.901Z,18.3
2022-09-12T09:13:00.953Z,18.2
2022-09-12T09:15:00.919Z,18.1
2022-09-12T09:17:00.898Z,18.2
2022-09-12T09:19:00.952Z,18.3
2022-09-12T09:20:00.910Z,18
2022-09-12T09:21:00.903Z,18.2
2022-09-12T09:22:00.940Z,18.1
2022-09-12T09:23:00.953Z,18
2022-09-12T09:27:00.926Z,18.1
2022-09-12T09:28:00.917Z,18.2
2022-09-12T09:29:00.946Z,18.3
2022-09-12T09:31:00.980Z,18.6
2022-09-12T09:32:00.932Z,18.5
2022-09-12T09:34:00.922Z,18.7
2022-09-12T09:35:00.954Z,19
2022-09-12T09:37:00.920Z,19.3
2022-09-12T09:39:00.990Z,19.5
2022-09-12T09:42:00.942Z,19.6
2022-09-12T09:44:00.955Z,19.9
2022-09-12T09:46:01.027Z,20.2
2022-09-12T09:48:00.959Z,20.4
2022-09-12T09:50:00.950Z,20.5
2022-09-12T09:53:00.990Z,20.2
2022-09-12T09:55:00.955Z,19.9
2022-09-12T09:57:00.900Z,19.6
2022-09-12T10:00:00.932Z,19.6
2022-09-12T10:02:00.982Z,19.8
2022-09-12T10:03:00.976Z,19.7
2022-09-12T10:05:00.917Z,20
2022-09-12T10:07:00.891Z,20.2
2022-09-12T10:08:01.116Z,20.3
2022-09-12T10:10:00.955Z,20.3
2022-09-12T10:11:00.916Z,20.6
2022-09-12T10:13:00.945Z,20.7
2022-09-12T10:15:00.946Z,21
2022-09-12T10:16:01.011Z,21.2
2022-09-12T10:18:00.907Z,21.5
2022-09-12T10:19:00.921Z,21.7
2022-09-12T10:20:17.813Z,21.8
2022-09-12T10:22:00.917Z,22.2
2022-09-12T10:24:00.956Z,22.1
2022-09-12T10:28:00.904Z,22.2
2022-09-12T10:30:01.148Z,22.5
2022-09-12T10:33:00.971Z,22.6
2022-09-12T10:35:00.935Z,22.4
2022-09-12T10:37:00.942Z,22.2
2022-09-12T10:39:00.996Z,22
2022-09-12T10:43:00.955Z,22
2022-09-12T10:45:00.915Z,22.3
2022-09-12T10:47:00.903Z,22.5
2022-09-12T10:49:00.903Z,22.7
2022-09-12T10:50:00.919Z,22.6
2022-09-12T10:52:00.948Z,22.9
2022-09-12T10:54:01.072Z,23
2022-09-12T10:56:00.900Z,23.2
2022-09-12T10:58:01.089Z,23.3
2022-09-12T11:00:00.945Z,23.5
2022-09-12T11:01:01.022Z,23.6
2022-09-12T11:02:01.077Z,23.7
2022-09-12T11:03:00.964Z,23.9
2022-09-12T11:05:00.938Z,23.8
2022-09-12T11:06:00.921Z,23.7
2022-09-12T11:08:00.917Z,23.4
2022-09-12T11:10:00.932Z,23.2
2022-09-12T11:12:00.952Z,23
2022-09-12T11:15:00.954Z,22.7
2022-09-12T11:16:01.185Z,22.8
2022-09-12T11:20:00.949Z,22.7
2022-09-12T11:23:00.908Z,22.7
2022-09-12T11:24:00.970Z,22.6
2022-09-12T11:26:00.919Z,22.2
2022-09-12T11:29:00.986Z,22.1
2022-09-12T11:31:01.145Z,22.2
2022-09-12T11:33:01.017Z,22.4
2022-09-12T11:36:00.909Z,22.7
2022-09-12T11:38:00.901Z,22.6
2022-09-12T11:41:00.976Z,22.7
2022-09-12T11:46:00.933Z,22.6
2022-09-12T11:47:00.896Z,22.4
2022-09-12T11:49:00.909Z,22
2022-09-12T11:51:00.900Z,21.8
2022-09-12T11:52:00.909Z,21.6
2022-09-12T11:54:00.895Z,21.5
2022-09-12T11:55:00.964Z,21.4
2022-09-12T11:57:00.921Z,21.2
2022-09-12T11:58:00.945Z,21.1
2022-09-12T12:01:00.938Z,21.3
2022-09-12T12:04:01.026Z,21.4
2022-09-12T12:06:00.883Z,21.6
2022-09-12T12:09:00.925Z,21.7
2022-09-12T12:11:00.937Z,21.9
2022-09-12T12:12:00.919Z,21.8
2022-09-12T12:13:00.949Z,22
2022-09-12T12:15:00.972Z,22.1
2022-09-12T12:17:00.915Z,22.3
2022-09-12T12:21:00.927Z,22.2
2022-09-12T12:22:00.947Z,22.3
2022-09-12T12:24:00.908Z,22.1
2022-09-12T12:25:00.929Z,21.9
2022-09-12T12:26:01.049Z,22
2022-09-12T12:28:00.914Z,21.9
2022-09-12T12:29:00.891Z,22.1
2022-09-12T12:31:00.967Z,22.3
2022-09-12T12:33:00.902Z,22.5
2022-09-12T12:35:00.916Z,22.6
2022-09-12T12:37:04.364Z,22.8
2022-09-12T12:38:00.946Z,22.9
2022-09-12T12:39:00.979Z,22.8
2022-09-12T12:41:00.904Z,22.7
2022-09-12T12:42:00.894Z,22.9
2022-09-12T12:46:00.963Z,23
2022-09-12T12:49:00.905Z,23.1
2022-09-12T12:51:00.920Z,23.1
2022-09-12T12:53:00.904Z,23.2
2022-09-12T12:55:00.953Z,22.9
2022-09-12T12:57:00.912Z,22.6
2022-09-12T12:59:00.904Z,22.7
2022-09-12T13:01:00.911Z,22.8
2022-09-12T13:03:00.906Z,22.9
2022-09-12T13:04:00.915Z,22.8
2022-09-12T13:05:00.913Z,22.9
2022-09-12T13:06:00.902Z,22.5
2022-09-12T13:08:00.947Z,22.8
2022-09-12T13:11:00.943Z,22.7
2022-09-12T13:13:00.916Z,22.8
2022-09-12T13:14:00.899Z,22.7
2022-09-12T13:15:00.907Z,22.9
2022-09-12T13:16:00.981Z,22.7
2022-09-12T13:18:00.919Z,22.9
2022-09-12T13:19:00.910Z,22.8
2022-09-12T13:20:24.003Z,22.7
2022-09-12T13:21:00.951Z,22.8
2022-09-12T13:22:00.980Z,22.9
2022-09-12T13:25:00.909Z,22.9
2022-09-12T13:27:00.898Z,22.7
2022-09-12T13:29:00.902Z,22.6
2022-09-12T13:30:00.956Z,22.7
2022-09-12T13:32:00.904Z,22.8
2022-09-12T13:33:00.995Z,22.9
2022-09-12T13:35:00.985Z,22.9
2022-09-12T13:37:00.914Z,23
2022-09-12T13:39:00.955Z,23.2
2022-09-12T13:41:00.935Z,23.1
2022-09-12T13:42:00.920Z,23.3
2022-09-12T13:44:00.942Z,23.1
2022-09-12T13:46:01.043Z,22.8
2022-09-12T13:48:00.935Z,22.9
2022-09-12T13:49:00.929Z,22.8
2022-09-12T13:51:00.956Z,22.4
2022-09-12T13:53:00.928Z,22.1
2022-09-12T13:55:00.909Z,22.2
2022-09-12T13:58:00.969Z,22.1
2022-09-12T14:00:00.976Z,22.3
2022-09-12T14:03:00.986Z,22.2
2022-09-12T14:07:00.911Z,22
2022-09-12T14:08:00.890Z,21.8
2022-09-12T14:09:00.973Z,21.7
2022-09-12T14:11:00.930Z,21.5
2022-09-12T14:12:00.956Z,21.4
2022-09-12T14:15:00.917Z,21.3
2022-09-12T14:16:00.938Z,21.4
2022-09-12T14:17:00.909Z,21.3
2022-09-12T14:18:00.923Z,21.2
2022-09-12T14:20:00.923Z,21
2022-09-12T14:21:00.940Z,21.2
2022-09-12T14:22:00.941Z,21.1
2022-09-12T14:24:01.004Z,21.1
2022-09-12T14:26:00.905Z,21.2
2022-09-12T14:27:00.900Z,20.9
2022-09-12T14:28:00.905Z,21
2022-09-12T14:29:00.925Z,20.9
2022-09-12T14:30:00.989Z,20.7
2022-09-12T14:34:00.896Z,20.8
2022-09-12T14:37:00.923Z,20.9
2022-09-12T14:40:00.909Z,20.8
2022-09-12T14:41:00.926Z,20.6
2022-09-12T14:42:00.947Z,20.7
2022-09-12T14:43:01.319Z,20.6
2022-09-12T14:47:00.962Z,20.4
2022-09-12T14:49:00.956Z,20.3
2022-09-12T14:50:00.960Z,20.5
2022-09-12T14:52:00.972Z,20.3
2022-09-12T14:54:00.908Z,20.3
2022-09-12T14:55:00.950Z,20.2
2022-09-12T14:57:00.991Z,20.3
2022-09-12T14:58:01.043Z,20.2
2022-09-12T15:00:00.954Z,20.2
2022-09-12T15:02:00.909Z,20.2
2022-09-12T15:06:00.963Z,20.1
2022-09-12T15:12:00.905Z,20
2022-09-12T15:14:00.901Z,20.1
2022-09-12T15:15:00.904Z,20
2022-09-12T15:17:00.907Z,19.9
2022-09-12T15:19:00.944Z,19.9
2022-09-12T15:22:00.906Z,19.8
2022-09-12T15:25:00.896Z,19.7
2022-09-12T15:27:00.956Z,19.6
2022-09-12T15:30:01.018Z,19.4
2022-09-12T15:31:00.961Z,19.5
2022-09-12T15:34:00.915Z,19.5
2022-09-12T15:35:00.909Z,19.4
2022-09-12T15:40:01.035Z,19.3
2022-09-12T15:43:00.932Z,19.1
2022-09-12T15:44:00.995Z,19.3
2022-09-12T15:46:00.987Z,19.3
2022-09-12T15:48:00.963Z,19.2
2022-09-12T15:51:00.931Z,19.1
2022-09-12T15:53:00.950Z,19
2022-09-12T15:58:04.967Z,19
2022-09-12T16:00:00.962Z,19.1
2022-09-12T16:04:00.935Z,19
2022-09-12T16:06:00.959Z,18.9
2022-09-12T16:08:00.912Z,18.8
2022-09-12T16:10:01.159Z,18.8
2022-09-12T16:14:00.899Z,18.7
2022-09-12T16:16:00.931Z,18.8
2022-09-12T16:17:00.901Z,18.7
2022-09-12T16:23:00.959Z,18.6
2022-09-12T16:31:00.983Z,18.6
2022-09-12T16:34:00.888Z,18.7
2022-09-12T16:35:00.959Z,18.5
2022-09-12T16:39:00.900Z,18.4
2022-09-12T16:41:00.922Z,18.6
2022-09-12T16:43:00.914Z,18.5
2022-09-12T16:45:00.921Z,18.5
2022-09-12T16:47:01.005Z,18.5
2022-09-12T16:50:00.961Z,18.4
2022-09-12T16:56:00.908Z,18.5
2022-09-12T16:58:00.954Z,18.4
2022-09-12T16:59:01.004Z,18.3
2022-09-12T17:01:00.908Z,18.2
2022-09-12T17:03:00.926Z,18.3
2022-09-12T17:04:00.915Z,18.4
2022-09-12T17:05:00.909Z,18.3
2022-09-12T17:07:00.937Z,18.2
2022-09-12T17:09:00.915Z,18.1
2022-09-12T17:10:00.931Z,18.2
2022-09-12T17:14:04.750Z,18.1
2022-09-12T17:15:00.942Z,18
2022-09-12T17:17:00.938Z,18
2022-09-12T17:19:00.926Z,18
2022-09-12T17:26:00.943Z,17.9
2022-09-12T17:27:00.931Z,18
2022-09-12T17:28:01.021Z,17.8
2022-09-12T17:30:01.081Z,17.8
2022-09-12T17:33:00.952Z,17.7
2022-09-12T17:34:00.927Z,17.6
2022-09-12T17:35:00.943Z,17.7
2022-09-12T17:37:00.982Z,17.6
2022-09-12T17:39:00.995Z,17.7
2022-09-12T17:41:01.032Z,17.5
2022-09-12T17:42:00.991Z,17.7
2022-09-12T17:44:00.931Z,17.5
2022-09-12T17:45:00.960Z,17.4
2022-09-12T17:47:00.928Z,17.3
2022-09-12T17:51:00.913Z,17.2
2022-09-12T17:53:00.936Z,17
2022-09-12T17:54:00.956Z,17.3
2022-09-12T17:56:00.934Z,16.9
2022-09-12T17:57:00.906Z,17
2022-09-12T17:59:00.936Z,16.9
2022-09-12T18:02:01.088Z,16.7
2022-09-12T18:04:00.927Z,16.9
2022-09-12T18:05:00.999Z,16.8
2022-09-12T18:07:00.915Z,16.7
2022-09-12T18:09:01.106Z,16.5
2022-09-12T18:11:00.944Z,16.3
2022-09-12T18:12:01.006Z,16.2
2022-09-12T18:13:00.988Z,16.3
2022-09-12T18:16:01.214Z,16.2
2022-09-12T18:18:00.919Z,16.1
2022-09-12T18:19:00.929Z,16
2022-09-12T18:21:00.924Z,16.1
2022-09-12T18:22:00.995Z,15.9
2022-09-12T18:24:00.921Z,15.8
2022-09-12T18:26:00.934Z,15.7
2022-09-12T18:28:00.967Z,15.6
2022-09-12T18:31:01.070Z,15.5
2022-09-12T18:33:00.935Z,15.4
2022-09-12T18:36:00.907Z,15.2
2022-09-12T18:37:00.975Z,15.4
2022-09-12T18:38:00.971Z,15.3
2022-09-12T18:39:00.959Z,15.4
2022-09-12T18:42:00.946Z,15.2
2022-09-12T18:44:00.929Z,15.1
2022-09-12T18:46:00.970Z,15
2022-09-12T18:52:00.956Z,14.8
2022-09-12T18:55:00.937Z,14.9
2022-09-12T18:57:00.932Z,14.8
2022-09-12T18:58:00.929Z,14.7
2022-09-12T19:02:01.069Z,14.5
2022-09-12T19:04:01.000Z,14.6
2022-09-12T19:07:00.986Z,14.3
2022-09-12T19:14:00.918Z,14.3
2022-09-12T19:15:00.987Z,14.4
2022-09-12T19:17:00.920Z,14.2
2022-09-12T19:18:00.978Z,14.3
2022-09-12T19:22:00.971Z,14.1
2022-09-12T19:26:00.927Z,14
2022-09-12T19:27:00.962Z,13.9
2022-09-12T19:29:00.897Z,13.8
2022-09-12T19:30:01.088Z,13.9
2022-09-12T19:32:01.099Z,13.9
2022-09-12T19:36:00.925Z,13.7
2022-09-12T19:37:00.951Z,13.6
2022-09-12T19:43:00.977Z,13.6
2022-09-12T19:46:00.930Z,13.7
2022-09-12T19:47:00.941Z,13.6
2022-09-12T19:55:00.966Z,13.7
2022-09-12T19:56:00.948Z,13.6
2022-09-12T19:58:00.934Z,13.5
2022-09-12T20:00:00.912Z,13.6
2022-09-12T20:01:00.948Z,13.5
2022-09-12T20:03:00.894Z,13.5
2022-09-12T20:06:00.950Z,13.6
2022-09-12T20:09:00.958Z,13.5
2022-09-12T20:11:00.996Z,13.6
2022-09-12T20:15:00.924Z,13.4
2022-09-12T20:16:00.895Z,13.5
2022-09-12T20:17:00.908Z,13.4
2022-09-12T20:18:00.904Z,13.5
2022-09-12T20:19:00.935Z,13.4
2022-09-12T20:20:00.964Z,13.5
2022-09-12T20:22:00.970Z,13.5
2022-09-12T20:24:00.978Z,13.5
2022-09-12T20:27:00.977Z,13.4
2022-09-12T20:30:01.035Z,13.3
2022-09-12T20:36:00.966Z,13.2
2022-09-12T20:40:00.921Z,13.1
2022-09-12T20:41:00.926Z,13.2
2022-09-12T20:44:00.954Z,13.1
2022-09-12T20:46:01.024Z,13.2
2022-09-12T20:48:00.902Z,13.1
2022-09-12T20:49:00.902Z,13.2
2022-09-12T20:50:01.024Z,13
2022-09-12T20:51:00.918Z,13.1
2022-09-12T20:53:00.945Z,13
2022-09-12T20:55:00.957Z,13
2022-09-12T20:57:00.936Z,13.1
2022-09-12T20:58:00.941Z,13
2022-09-12T21:01:00.928Z,13.1
2022-09-12T21:02:00.988Z,13
2022-09-12T21:04:00.923Z,13
2022-09-12T21:06:00.910Z,12.8
2022-09-12T21:07:00.975Z,13
2022-09-12T21:09:00.953Z,13
2022-09-12T21:11:00.930Z,12.9
2022-09-12T21:12:00.942Z,13
2022-09-12T21:13:00.945Z,12.9
2022-09-12T21:15:00.904Z,13
2022-09-12T21:17:00.962Z,13.1
2022-09-12T21:19:00.909Z,12.9
2022-09-12T21:20:00.891Z,12.8
2022-09-12T21:21:00.925Z,12.9
2022-09-12T21:22:00.897Z,13
2022-09-12T21:24:01.004Z,12.9
2022-09-12T21:26:00.923Z,12.8
2022-09-12T21:28:00.949Z,12.9
2022-09-12T21:30:00.977Z,13
2022-09-12T21:32:00.911Z,13.1
2022-09-12T21:33:00.960Z,13
2022-09-12T21:36:01.008Z,12.9
2022-09-12T21:39:00.960Z,13
2022-09-12T21:41:00.937Z,13.1
2022-09-12T21:42:00.920Z,13
2022-09-12T21:44:00.939Z,13
2022-09-12T21:45:00.961Z,12.9
2022-09-12T21:47:00.945Z,12.9
2022-09-12T21:48:00.967Z,13
2022-09-12T21:49:00.959Z,12.9
2022-09-12T21:51:00.962Z,13
2022-09-12T21:53:00.953Z,13
2022-09-12T21:56:00.940Z,13
2022-09-12T21:58:00.901Z,12.9
2022-09-12T21:59:00.922Z,13
2022-09-12T22:00:01.057Z,12.9
2022-09-12T22:04:00.954Z,13
2022-09-12T22:06:00.946Z,12.9
2022-09-12T22:07:00.951Z,13
2022-09-12T22:08:00.950Z,12.9
2022-09-12T22:11:00.938Z,13
2022-09-12T22:12:00.975Z,12.9
2022-09-12T22:14:01.062Z,13
2022-09-12T22:16:00.969Z,12.9
2022-09-12T22:17:00.958Z,12.8
2022-09-12T22:19:00.972Z,12.9
2022-09-12T22:20:00.993Z,12.8
2022-09-12T22:25:00.918Z,12.9
2022-09-12T22:31:00.969Z,13.1
2022-09-12T22:32:00.929Z,13
2022-09-12T22:34:00.916Z,12.9
2022-09-12T22:35:00.933Z,13
2022-09-12T22:37:00.932Z,13
2022-09-12T22:39:00.903Z,12.9
2022-09-12T22:40:01.009Z,13
2022-09-12T22:42:00.932Z,12.9
2022-09-12T22:44:00.989Z,13.1
2022-09-12T22:46:00.942Z,12.9
2022-09-12T22:49:00.962Z,12.9
2022-09-12T22:52:00.908Z,13
2022-09-12T22:53:01.046Z,12.9
2022-09-12T22:55:00.965Z,13
2022-09-12T22:57:00.899Z,13
2022-09-12T22:58:00.994Z,12.9
2022-09-12T23:02:00.926Z,13
2022-09-12T23:03:01.027Z,13.1
2022-09-12T23:05:00.907Z,13.1
2022-09-12T23:06:00.989Z,12.9
2022-09-12T23:07:00.966Z,13
2022-09-12T23:10:00.908Z,12.9
2022-09-12T23:11:00.929Z,13.1
2022-09-12T23:12:00.924Z,13
2022-09-12T23:13:00.941Z,13.2
2022-09-12T23:16:01.070Z,13
2022-09-12T23:18:00.907Z,13.1
2022-09-12T23:19:00.908Z,13
2022-09-12T23:20:00.929Z,13.1
2022-09-12T23:21:00.962Z,12.9
2022-09-12T23:24:00.943Z,13
2022-09-12T23:27:00.893Z,13.1
2022-09-12T23:28:00.904Z,12.9
2022-09-12T23:29:00.905Z,13
2022-09-12T23:32:00.969Z,13.1
2022-09-12T23:34:00.888Z,12.8
2022-09-12T23:35:00.936Z,13
2022-09-12T23:37:00.899Z,13.1
2022-09-12T23:38:00.961Z,13
2022-09-12T23:41:00.981Z,13.1
2022-09-12T23:43:00.893Z,12.8
2022-09-12T23:44:00.918Z,13
2022-09-12T23:46:01.030Z,12.9
2022-09-12T23:48:00.927Z,12.9
2022-09-12T23:49:00.988Z,13
2022-09-12T23:51:00.929Z,12.9
2022-09-12T23:55:00.902Z,13
2022-09-12T23:56:00.899Z,13.1
2022-09-12T23:58:00.912Z,12.9
